Time;durP1;ratioP1;P1;durP2;ratioP2;P2;SDS_P1;SDS_P2;PMS_P1;PMS_P2;Temp;Humidity;BMP_temperature;BMP_pressure;BME280_temperature;BME280_humidity;BME280_pressure;Samples;Min_cycle;Max_cycle;Signal;HPM_P1;HPM_P2
2022/05/24 00:00:08;;;;;;;11.63;5.80;;;;;;;4.16;100.00;99665.20;1714314;83;22077;-69
2022/05/24 00:02:38;;;;;;;10.50;6.00;;;;;;;4.15;100.00;99664.80;1781659;80;21057;-70
2022/05/24 00:05:06;;;;;;;9.85;5.53;;;;;;;4.12;100.00;99666.16;1781636;80;21064;-69
2022/05/24 00:07:34;;;;;;;7.47;5.12;;;;;;;4.10;100.00;99664.03;1781765;80;21620;-70
2022/05/24 00:10:04;;;;;;;11.78;5.92;;;;;;;4.09;100.00;99667.50;1781464;80;21018;-70
2022/05/24 00:12:31;;;;;;;8.03;4.87;;;;;;;4.08;100.00;99672.31;1714700;83;21108;-70
2022/05/24 00:17:45;;;;;;;10.23;5.72;;;;;;;4.06;100.00;99681.91;1750760;82;21063;-70
2022/05/24 00:20:13;;;;;;;9.00;5.72;;;;;;;4.02;100.00;99678.47;1748873;82;21043;-69
2022/05/24 00:22:40;;;;;;;8.95;6.30;;;;;;;3.99;100.00;99679.39;1742433;82;21150;-70
2022/05/24 00:25:08;;;;;;;9.10;5.97;;;;;;;3.97;100.00;99678.55;1742370;82;21299;-69
2022/05/24 00:27:35;;;;;;;11.48;5.75;;;;;;;3.94;100.00;99677.77;1742523;82;21055;-70
2022/05/24 00:30:03;;;;;;;11.20;6.20;;;;;;;3.91;100.00;99686.50;1742473;82;21055;-69
2022/05/24 00:32:29;;;;;;;9.83;6.25;;;;;;;3.87;100.00;99684.83;1749277;80;21045;-70
2022/05/24 00:34:56;;;;;;;10.20;6.47;;;;;;;3.84;100.00;99690.06;1773380;80;21242;-69
2022/05/24 00:37:24;;;;;;;10.63;6.97;;;;;;;3.80;100.00;99683.20;1773204;80;21029;-69
2022/05/24 00:39:51;;;;;;;9.95;5.80;;;;;;;3.78;100.00;99682.38;1773277;80;21104;-69
2022/05/24 00:42:21;;;;;;;8.38;5.85;;;;;;;3.75;100.00;99682.40;1773461;80;21029;-68
2022/05/24 00:45:17;;;;;;;9.93;5.58;;;;;;;3.74;100.00;99683.30;1773267;80;21045;-69
2022/05/24 00:48:00;;;;;;;9.98;5.90;;;;;;;3.74;100.00;99687.20;1773607;80;21836;-70
2022/05/24 00:50:33;;;;;;;13.70;6.37;;;;;;;3.71;100.00;99684.66;1773520;80;21073;-69
2022/05/24 00:53:07;;;;;;;10.48;6.33;;;;;;;3.68;100.00;99689.90;1772114;80;21049;-69
2022/05/24 00:55:48;;;;;;;12.07;6.45;;;;;;;3.66;100.00;99683.84;1773250;80;21026;-69
2022/05/24 00:58:28;;;;;;;11.35;6.83;;;;;;;3.63;100.00;99690.42;1773221;80;26999;-69
2022/05/24 01:00:54;;;;;;;9.65;6.00;;;;;;;3.60;100.00;99693.08;1771700;80;21503;-70
2022/05/24 01:03:21;;;;;;;12.80;6.40;;;;;;;3.60;100.00;99693.08;1773349;80;21042;-69
2022/05/24 01:05:47;;;;;;;9.23;5.85;;;;;;;3.58;100.00;99701.77;1773514;80;21089;-68
2022/05/24 01:08:14;;;;;;;13.00;6.55;;;;;;;3.57;100.00;99700.05;1773509;80;21030;-69
2022/05/24 01:10:45;;;;;;;9.43;5.35;;;;;;;3.55;100.00;99702.27;1773589;80;21125;-69
2022/05/24 01:13:16;;;;;;;7.45;4.80;;;;;;;3.51;100.00;99696.68;1770393;80;22087;-70
2022/05/24 01:15:44;;;;;;;;;;;;;;;3.50;100.00;99699.73;1764817;80;21089;-69
2022/05/24 01:18:12;;;;;;;11.38;6.83;;;;;;;3.49;100.00;99695.39;1773424;80;20187;-69
2022/05/24 01:20:41;;;;;;;8.93;5.67;;;;;;;3.45;100.00;99698.95;1775066;80;21092;-69
2022/05/24 01:23:36;;;;;;;12.20;7.22;;;;;;;3.44;100.00;99697.21;1781817;80;21609;-69
2022/05/24 01:26:37;;;;;;;14.33;7.15;;;;;;;3.43;100.00;99695.92;1781722;80;21959;-70
2022/05/24 01:29:07;;;;;;;9.85;6.00;;;;;;;3.42;100.00;99698.97;1748831;80;21025;-69
2022/05/24 01:36:59;;;;;;;9.65;6.12;;;;;;;3.33;100.00;99699.11;1749442;80;21031;-69
2022/05/24 01:39:25;;;;;;;10.40;6.45;;;;;;;3.30;100.00;99703.06;1781596;80;21218;-70
2022/05/24 01:41:52;;;;;;;8.18;5.58;;;;;;;3.28;100.00;99706.13;1781910;80;21069;-69
2022/05/24 01:44:24;;;;;;;13.95;6.87;;;;;;;3.27;100.00;99703.97;1781539;80;21037;-69
2022/05/24 01:46:51;;;;;;;11.78;6.35;;;;;;;3.25;100.00;99700.98;1781742;80;21092;-70
2022/05/24 01:49:25;;;;;;;11.50;7.42;;;;;;;3.24;100.00;99697.94;1781587;80;21533;-69
2022/05/24 01:52:06;;;;;;;14.83;7.22;;;;;;;3.22;100.00;99697.09;1775450;80;21218;-69
2022/05/24 01:54:37;;;;;;;12.00;7.33;;;;;;;3.24;100.00;99705.30;1781550;80;21075;-70
2022/05/24 01:57:07;;;;;;;;;;;;;;;3.21;100.00;99707.09;1784511;80;21037;-69
2022/05/24 01:59:33;;;;;;;11.55;6.83;;;;;;;3.18;100.00;99704.10;1781082;80;20460;-69
2022/05/24 02:02:00;;;;;;;12.45;6.42;;;;;;;3.14;100.00;99703.27;1781785;80;21088;-69
2022/05/24 02:04:29;;;;;;;14.75;7.33;;;;;;;3.13;100.00;99709.37;1781591;80;21147;-69
2022/05/24 02:07:04;;;;;;;13.13;6.67;;;;;;;3.11;100.00;99711.13;1750791;80;21546;-69
2022/05/24 02:09:35;;;;;;;17.42;7.35;;;;;;;3.11;100.00;99711.13;1781770;80;21178;-69
2022/05/24 02:12:07;;;;;;;13.40;7.80;;;;;;;3.10;100.00;99702.88;1781088;80;21013;-69
2022/05/24 02:14:37;;;;;;;15.80;7.95;;;;;;;3.09;100.00;99709.43;1781364;80;21092;-70
2022/05/24 02:17:09;;;;;;;11.68;7.15;;;;;;;3.08;100.00;99709.88;1781512;80;21041;-69
2022/05/24 02:19:38;;;;;;;14.28;8.23;;;;;;;3.08;100.00;99709.88;1781836;80;21100;-69
2022/05/24 02:22:09;;;;;;;15.55;8.10;;;;;;;3.05;100.00;99709.89;1775750;80;21045;-69
2022/05/24 02:24:35;;;;;;;14.33;8.10;;;;;;;3.10;100.00;99722.40;1706914;84;22195;-70
2022/05/24 02:27:03;;;;;;;12.28;7.62;;;;;;;3.13;100.00;99719.78;1773420;80;21010;-68
2022/05/24 02:29:31;;;;;;;14.07;7.30;;;;;;;3.17;100.00;99728.83;1773428;80;21215;-69
2022/05/24 02:31:58;;;;;;;8.63;6.00;;;;;;;3.19;100.00;99730.98;1773528;80;21486;-68
2022/05/24 02:34:24;;;;;;;12.05;7.50;;;;;;;3.21;100.00;99738.33;1773214;80;22238;-68
2022/05/24 02:36:52;;;;;;;12.33;7.08;;;;;;;3.24;100.00;99738.27;1773165;80;21014;-70
2022/05/24 02:39:18;;;;;;;19.35;8.40;;;;;;;3.27;100.00;99736.95;1706964;84;21255;-68
2022/05/24 02:41:45;;;;;;;14.43;7.65;;;;;;;3.32;100.00;99737.74;1773360;80;21317;-69
2022/05/24 02:44:14;;;;;;;18.42;9.50;;;;;;;3.39;100.00;99739.38;1706909;84;21086;-69
2022/05/24 02:46:44;;;;;;;17.07;7.97;;;;;;;3.51;100.00;99741.80;1773495;80;21577;-69
2022/05/24 02:49:11;;;;;;;14.73;8.83;;;;;;;3.66;100.00;99745.05;1774053;80;21061;-68
2022/05/24 02:51:38;;;;;;;16.48;8.70;;;;;;;3.75;100.00;99746.20;1773082;80;21108;-69
2022/05/24 02:54:07;;;;;;;18.57;10.08;;;;;;;3.87;100.00;99743.44;1707032;84;21256;-69
2022/05/24 02:56:34;;;;;;;19.12;11.18;;;;;;;3.99;100.00;99740.63;1773249;80;21553;-69
2022/05/24 02:59:04;;;;;;;23.98;13.22;;;;;;;4.11;100.00;99751.73;1707118;84;22151;-69
2022/05/24 03:01:32;;;;;;;29.85;13.88;;;;;;;4.24;100.00;99746.73;1773555;80;21033;-69
2022/05/24 03:03:58;;;;;;;30.95;15.28;;;;;;;4.37;100.00;99748.25;1707071;84;21070;-69
2022/05/24 03:06:27;;;;;;;38.38;15.90;;;;;;;4.51;100.00;99745.80;1773383;80;21529;-70
2022/05/24 03:14:25;;;;;;;22.48;9.85;;;;;;;5.02;100.00;99751.78;1755122;80;21062;-69
2022/05/24 03:16:53;;;;;;;15.15;8.83;;;;;;;5.29;100.00;99752.53;1742722;82;21082;-69
2022/05/24 03:19:22;;;;;;;14.33;8.05;;;;;;;5.51;100.00;99749.87;1742645;82;21145;-69
2022/05/24 03:21:50;;;;;;;16.85;8.63;;;;;;;5.76;100.00;99749.31;1745588;82;21561;-69
2022/05/24 03:24:18;;;;;;;12.33;7.62;;;;;;;6.01;100.00;99760.08;1750385;82;21078;-69
2022/05/24 03:26:46;;;;;;;18.92;8.13;;;;;;;6.26;100.00;99752.48;1750501;82;21114;-69
2022/05/24 03:29:13;;;;;;;11.25;7.65;;;;;;;6.53;100.00;99757.44;1750561;82;21031;-71
2022/05/24 03:31:40;;;;;;;13.05;7.33;;;;;;;6.78;100.00;99755.02;1750609;82;21263;-68
2022/05/24 03:34:08;;;;;;;11.68;6.83;;;;;;;7.07;100.00;99758.14;1750574;82;21067;-69
2022/05/24 03:36:35;;;;;;;10.20;6.83;;;;;;;7.39;100.00;99754.19;1750633;82;21095;-70
2022/05/24 03:39:01;;;;;;;11.48;7.12;;;;;;;7.69;100.00;99755.86;1750973;82;21126;-68
2022/05/24 03:41:28;;;;;;;12.20;7.05;;;;;;;8.04;100.00;99751.25;1750650;82;21031;-69
2022/05/24 03:43:54;;;;;;;16.93;8.00;;;;;;;8.43;100.00;99756.11;1750780;82;22140;-69
2022/05/24 03:46:21;;;;;;;14.85;8.00;;;;;;;8.83;100.00;99754.70;1750494;82;21559;-69
2022/05/24 03:48:47;;;;;;;14.75;7.80;;;;;;;9.26;100.00;99759.70;1750913;82;21614;-69
2022/05/24 03:51:16;;;;;;;13.75;8.15;;;;;;;9.68;100.00;99756.80;1750476;82;21097;-69
2022/05/24 03:53:43;;;;;;;14.68;7.83;;;;;;;10.11;100.00;99755.94;1750745;82;21030;-69
2022/05/24 03:56:09;;;;;;;16.40;8.20;;;;;;;10.53;100.00;99756.39;1750667;82;21183;-70
2022/05/24 03:58:35;;;;;;;16.73;8.03;;;;;;;10.86;100.00;99758.05;1750845;82;21058;-70
2022/05/24 04:01:04;;;;;;;14.13;7.05;;;;;;;11.13;100.00;99750.69;1750737;82;21031;-69
2022/05/24 04:03:32;;;;;;;16.15;7.83;;;;;;;11.54;99.19;99755.81;1750737;82;21075;-68
2022/05/24 04:05:59;;;;;;;13.68;7.67;;;;;;;12.11;95.46;99741.72;1750535;82;21637;-71
2022/05/24 04:08:29;;;;;;;12.45;6.87;;;;;;;12.71;91.88;99747.45;1750770;82;21086;-70
2022/05/24 04:11:09;;;;;;;16.77;8.70;;;;;;;13.28;88.47;99743.64;1750481;82;21038;-69
2022/05/24 04:13:37;;;;;;;13.05;8.18;;;;;;;13.83;84.13;99753.81;1750772;82;21496;-69
2022/05/24 04:16:05;;;;;;;13.93;7.22;;;;;;;14.29;79.35;99747.19;1750446;82;21002;-68
2022/05/24 04:18:32;;;;;;;15.80;7.20;;;;;;;14.61;77.28;99753.75;1714898;83;21052;-69
2022/05/24 04:20:59;;;;;;;12.47;6.75;;;;;;;15.00;75.50;99753.12;1750611;81;21871;-70
2022/05/24 04:23:26;;;;;;;15.60;6.85;;;;;;;15.38;72.43;99751.69;1755604;81;21002;-69
2022/05/24 04:25:53;;;;;;;12.07;6.65;;;;;;;15.68;69.22;99755.52;1756003;81;21033;-70
2022/05/24 04:28:22;;;;;;;11.33;5.90;;;;;;;15.90;67.00;99757.69;1756135;81;21057;-69
2022/05/24 04:30:50;;;;;;;15.32;6.20;;;;;;;15.99;66.66;99761.08;1756076;81;21128;-71
2022/05/24 04:33:17;;;;;;;12.05;5.67;;;;;;;16.03;65.62;99762.55;1756079;81;21135;-71
2022/05/24 04:35:45;;;;;;;9.90;5.37;;;;;;;16.10;65.00;99763.88;1755926;81;21034;-70
2022/05/24 04:38:12;;;;;;;15.72;5.80;;;;;;;16.22;63.92;99761.34;1756072;81;21045;-70
2022/05/24 04:43:24;;;;;;;12.00;5.17;;;;;;;16.74;59.58;99764.48;1756319;81;21038;-70
2022/05/24 04:45:53;;;;;;;8.55;4.85;;;;;;;17.17;56.99;99766.87;1756069;81;21137;-70
2022/05/24 04:48:22;;;;;;;10.88;5.10;;;;;;;17.51;55.51;99769.81;1755966;81;21021;-70
2022/05/24 04:50:54;;;;;;;8.58;4.67;;;;;;;17.85;53.84;99764.23;1756011;81;21037;-70
2022/05/24 04:53:21;;;;;;;10.72;4.72;;;;;;;18.14;51.04;99763.91;1756442;81;28145;-70
2022/05/24 04:55:49;;;;;;;12.53;4.72;;;;;;;18.34;47.17;99764.61;1756086;81;21529;-71
2022/05/24 04:58:17;;;;;;;7.42;4.25;;;;;;;18.47;44.82;99771.19;1756554;81;21057;-70
2022/05/24 05:00:44;;;;;;;11.57;4.28;;;;;;;18.47;41.71;99773.84;1755932;81;21025;-70
2022/05/24 05:03:14;;;;;;;6.58;4.10;;;;;;;18.51;42.28;99776.66;1756074;81;21017;-70
2022/05/24 05:05:42;;;;;;;8.13;4.22;;;;;;;18.71;42.11;99771.16;1756054;81;28219;-70
2022/05/24 05:08:09;;;;;;;9.73;4.40;;;;;;;18.94;41.89;99770.75;1755786;81;21053;-70
2022/05/24 05:10:37;;;;;;;9.08;4.20;;;;;;;19.17;41.65;99770.28;1755997;81;21139;-70
2022/05/24 05:13:04;;;;;;;8.40;3.80;;;;;;;19.31;39.98;99777.20;1755835;81;21022;-69
2022/05/24 05:15:34;;;;;;;7.55;3.40;;;;;;;19.40;38.47;99772.96;1755942;81;21578;-71
2022/05/24 05:18:06;;;;;;;8.23;3.50;;;;;;;19.46;36.90;99773.79;1755674;81;21042;-69
2022/05/24 05:20:39;;;;;;;10.60;4.08;;;;;;;19.54;36.50;99770.53;1756072;81;21058;-72
2022/05/24 05:23:07;;;;;;;7.72;3.90;;;;;;;19.72;36.77;99773.08;1752485;81;21224;-71
2022/05/24 05:25:33;;;;;;;6.08;3.15;;;;;;;19.93;35.57;99770.98;1750854;82;21014;-72
2022/05/24 05:28:00;;;;;;;6.22;3.55;;;;;;;20.20;35.49;99774.52;1750791;82;21126;-70
2022/05/24 05:33:12;;;;;;;5.50;3.10;;;;;;;20.58;32.70;99767.34;1750785;82;21046;-70
2022/05/24 05:35:39;;;;;;;7.28;3.00;;;;;;;20.76;31.04;99770.78;1750459;82;21210;-70
2022/05/24 05:38:06;;;;;;;11.45;3.77;;;;;;;20.67;30.75;99774.59;1750582;82;21007;-70
2022/05/24 05:40:32;;;;;;;8.95;3.42;;;;;;;20.73;30.74;99771.90;1750765;82;21132;-70
2022/05/24 05:43:00;;;;;;;10.38;3.35;;;;;;;20.79;28.69;99769.17;1750925;82;21082;-70
2022/05/24 05:45:27;;;;;;;6.78;3.10;;;;;;;20.71;28.82;99768.00;1750654;82;21098;-69
2022/05/24 05:47:54;;;;;;;10.25;3.35;;;;;;;20.72;29.34;99767.51;1750826;82;21121;-70
2022/05/24 05:50:22;;;;;;;5.00;3.10;;;;;;;20.81;29.48;99765.88;1750782;82;21063;-70
2022/05/24 05:52:50;;;;;;;6.58;3.15;;;;;;;20.84;28.69;99765.61;1750667;82;21007;-71
2022/05/24 05:55:19;;;;;;;5.70;2.87;;;;;;;20.78;28.72;99764.81;1750591;82;21027;-72
2022/05/24 05:57:46;;;;;;;4.60;2.90;;;;;;;20.84;26.80;99766.94;1750881;82;21618;-70
2022/05/24 06:00:13;;;;;;;5.37;3.22;;;;;;;20.82;28.49;99768.90;1750619;82;21819;-70
2022/05/24 06:02:46;;;;;;;5.08;2.67;;;;;;;21.03;27.61;99765.73;1750607;82;21039;-70
2022/05/24 06:05:13;;;;;;;7.45;2.83;;;;;;;21.29;27.49;99764.80;1750876;82;21126;-70
2022/05/24 06:07:41;;;;;;;8.75;2.50;;;;;;;21.50;26.51;99764.77;1750527;82;21023;-70
2022/05/24 06:10:10;;;;;;;5.70;2.50;;;;;;;21.57;23.28;99761.05;1750590;82;21106;-70
2022/05/24 06:12:37;;;;;;;5.97;2.95;;;;;;;21.53;24.24;99759.63;1750896;82;21340;-70
2022/05/24 06:15:05;;;;;;;4.55;2.67;;;;;;;21.57;25.20;99755.19;1750385;82;21003;-71
2022/05/24 06:17:33;;;;;;;8.13;3.33;;;;;;;21.74;23.52;99759.06;1750523;82;21099;-69
2022/05/24 06:20:01;;;;;;;8.10;2.60;;;;;;;21.87;24.00;99757.95;1750673;82;21030;-70
2022/05/24 06:22:27;;;;;;;4.50;2.33;;;;;;;22.09;23.61;99765.75;1752088;81;21106;-71
2022/05/24 06:24:54;;;;;;;3.92;2.27;;;;;;;22.39;24.18;99761.28;1755985;81;21186;-70
2022/05/24 06:27:22;;;;;;;7.50;3.00;;;;;;;22.69;23.80;99765.63;1755920;81;20994;-70
2022/05/24 06:29:49;;;;;;;3.65;2.00;;;;;;;22.82;23.34;99764.84;1756305;81;20990;-70
2022/05/24 06:32:15;;;;;;;3.58;2.10;;;;;;;22.75;21.89;99759.70;1755908;81;21020;-69
2022/05/24 06:34:42;;;;;;;6.20;2.37;;;;;;;22.72;20.68;99760.47;1755971;81;21037;-70
2022/05/24 06:37:09;;;;;;;3.90;2.00;;;;;;;22.63;20.96;99764.85;1755678;81;21229;-70
2022/05/24 06:39:36;;;;;;;5.87;2.55;;;;;;;22.59;21.36;99760.75;1755940;81;21558;-70
2022/05/24 06:42:04;;;;;;;3.72;2.20;;;;;;;22.72;22.82;99767.17;1755904;81;21049;-71
2022/05/24 06:44:33;;;;;;;2.62;1.90;;;;;;;23.02;21.05;99760.27;1719832;83;21556;-70
2022/05/24 06:47:00;;;;;;;4.08;2.70;;;;;;;22.96;20.72;99759.98;1701844;84;21070;-70
2022/05/24 06:49:26;;;;;;;4.17;2.02;;;;;;;22.93;22.68;99763.80;1701814;84;21842;-70
2022/05/24 06:51:53;;;;;;;4.37;2.00;;;;;;;23.15;21.96;99754.59;1701997;84;21089;-71
2022/05/24 06:54:19;;;;;;;4.08;2.58;;;;;;;23.29;20.88;99763.17;1701891;84;21101;-70
2022/05/24 06:56:45;;;;;;;3.85;2.05;;;;;;;23.21;20.81;99754.48;1701871;84;21058;-69
2022/05/24 07:04:43;;;;;;;4.10;2.35;;;;;;;22.88;20.76;99766.08;1702093;84;21070;-71
2022/05/24 07:07:09;;;;;;;3.65;2.05;;;;;;;23.03;21.04;99758.46;1701835;84;21121;-71
2022/05/24 07:09:40;;;;;;;4.17;2.12;;;;;;;23.35;21.44;99760.75;1701911;84;21642;-71
2022/05/24 07:12:07;;;;;;;5.05;1.80;;;;;;;23.50;19.39;99768.31;1702134;84;21057;-71
2022/05/24 07:14:35;;;;;;;7.42;2.02;;;;;;;23.36;19.79;99764.27;1683127;84;21841;-70
2022/05/24 07:17:02;;;;;;;6.83;2.30;;;;;;;23.32;19.81;99766.90;1735677;82;21049;-69
2022/05/24 07:19:30;;;;;;;5.87;2.00;;;;;;;23.37;20.23;99768.14;1735645;82;21014;-71
2022/05/24 07:21:57;;;;;;;6.62;2.17;;;;;;;23.46;20.71;99771.78;1735551;82;21109;-71
2022/05/24 07:24:23;;;;;;;4.37;2.10;;;;;;;23.78;20.86;99773.21;1754004;81;21589;-71
2022/05/24 07:26:49;;;;;;;6.50;2.05;;;;;;;24.05;20.04;99778.56;1755789;81;21563;-70
2022/05/24 07:29:16;;;;;;;3.67;1.90;;;;;;;24.14;20.06;99772.77;1755910;81;21590;-70
2022/05/24 07:31:43;;;;;;;3.50;1.90;;;;;;;24.34;19.47;99766.75;1755814;81;22102;-70
2022/05/24 07:34:09;;;;;;;4.87;1.92;;;;;;;24.40;19.06;99777.38;1755723;81;21095;-70
2022/05/24 07:36:37;;;;;;;5.30;1.80;;;;;;;24.15;19.20;99780.33;1755522;81;21613;-71
2022/05/24 07:39:04;;;;;;;3.25;1.70;;;;;;;24.03;18.94;99775.17;1755789;81;21199;-70
2022/05/24 07:47:01;;;;;;;3.42;1.87;;;;;;;24.05;19.49;99773.17;1786827;80;21072;-71
2022/05/24 07:49:28;;;;;;;3.80;1.95;;;;;;;24.26;19.65;99756.73;1787072;80;21088;-72
2022/05/24 07:51:55;;;;;;;8.35;2.08;;;;;;;24.34;19.90;99760.02;1786706;80;21802;-70
2022/05/24 07:54:22;;;;;;;8.55;1.95;;;;;;;24.46;19.17;99758.77;1786976;80;21095;-72
2022/05/24 07:56:49;;;;;;;3.87;1.50;;;;;;;24.53;18.95;99756.84;1786694;80;21267;-71
2022/05/24 07:59:17;;;;;;;3.55;1.98;;;;;;;24.53;20.19;99756.84;1786956;80;21722;-71
2022/05/24 08:01:45;;;;;;;2.72;1.75;;;;;;;24.75;20.29;99761.70;1786831;80;21024;-69
2022/05/24 08:04:12;;;;;;;5.30;2.10;;;;;;;24.91;19.41;99764.54;1786997;80;21949;-71
2022/05/24 08:06:38;;;;;;;2.77;1.80;;;;;;;25.04;17.92;99767.30;1786636;80;21045;-70
2022/05/24 08:09:04;;;;;;;3.67;1.80;;;;;;;24.72;17.52;99761.19;1786904;80;21014;-70
2022/05/24 08:11:33;;;;;;;2.12;1.70;;;;;;;24.39;17.93;99763.09;1786706;80;21092;-70
2022/05/24 08:14:02;;;;;;;7.67;2.30;;;;;;;24.21;18.19;99762.24;1786888;80;21077;-71
2022/05/24 08:16:30;;;;;;;6.50;2.02;;;;;;;24.25;18.93;99765.81;1719795;83;21093;-70
2022/05/24 08:18:58;;;;;;;6.42;1.82;;;;;;;24.46;18.79;99762.80;1749557;82;21112;-69
2022/05/24 08:21:26;;;;;;;4.08;1.90;;;;;;;24.34;18.69;99755.98;1749540;82;21104;-70
2022/05/24 08:23:56;;;;;;;5.33;1.70;;;;;;;24.11;18.60;99758.29;1685138;84;21112;-70
2022/05/24 08:26:22;;;;;;;4.22;2.00;;;;;;;24.13;19.16;99754.08;1750412;82;21564;-70
2022/05/24 08:28:51;;;;;;;4.20;2.05;;;;;;;24.33;19.26;99752.93;1714305;83;21257;-71
2022/05/24 08:31:18;;;;;;;3.30;1.67;;;;;;;24.62;19.28;99757.25;1750320;82;21053;-71
2022/05/24 08:33:45;;;;;;;2.67;1.70;;;;;;;24.77;19.15;99760.21;1750463;82;21105;-71
2022/05/24 08:37:35;;;;;;;5.08;1.67;;;;;;;24.98;17.77;99754.45;1796439;79;22674;-71
2022/05/24 08:40:04;;;;;;;5.80;1.70;;;;;;;24.88;19.10;99762.14;1750139;81;21116;-70
2022/05/24 08:43:14;;;;;;;6.12;1.92;;;;;;;25.00;17.33;99758.68;1747907;82;21259;-70
2022/05/24 08:48:52;;;;;;;2.67;1.72;;;;;;;24.94;19.18;99750.38;1747969;82;21037;-71
2022/05/24 08:51:32;;;;;;;3.67;1.72;;;;;;;25.05;19.43;99755.50;1747776;82;21053;-70
2022/05/24 08:54:10;;;;;;;4.55;1.80;;;;;;;25.17;18.72;99756.95;1748081;82;20946;-70
2022/05/24 08:56:57;;;;;;;4.47;1.62;;;;;;;25.21;18.17;99755.63;1748018;82;21212;-70
2022/05/24 08:59:36;;;;;;;2.52;1.57;;;;;;;25.03;18.52;99757.51;1748375;82;20988;-71
2022/05/24 09:02:05;;;;;;;3.65;1.70;;;;;;;25.02;19.23;99755.84;1747933;81;21045;-70
2022/05/24 09:04:32;;;;;;;5.30;1.85;;;;;;;25.13;19.20;99753.71;1748159;82;21609;-70
2022/05/24 09:07:31;;;;;;;3.08;1.60;;;;;;;25.27;18.91;99751.46;1747645;82;21056;-70
2022/05/24 09:10:12;;;;;;;5.40;1.70;;;;;;;25.41;19.50;99752.70;1748461;82;21105;-71
2022/05/24 09:13:19;;;;;;;3.60;1.80;;;;;;;25.59;18.45;99764.24;1747626;82;21089;-71
2022/05/24 09:19:46;;;;;;;4.03;1.65;;;;;;;25.55;18.10;99761.52;1748007;82;21006;-70
2022/05/24 09:22:13;;;;;;;2.17;1.32;;;;;;;25.05;18.77;99752.81;1748045;82;21684;-71
2022/05/24 09:24:56;;;;;;;3.90;1.35;;;;;;;25.05;18.81;99772.54;1748131;82;21233;-72
2022/05/24 09:27:26;;;;;;;3.98;1.50;;;;;;;25.08;18.38;99755.20;1748097;81;21120;-71
2022/05/24 09:30:04;;;;;;;6.12;1.65;;;;;;;25.22;19.17;99754.64;1748081;82;20982;-70
2022/05/24 09:32:43;;;;;;;4.35;1.50;;;;;;;25.51;19.28;99745.32;1747982;82;21069;-71
2022/05/24 09:35:18;;;;;;;4.47;1.70;;;;;;;25.99;17.81;99747.86;1747988;82;21084;-71
2022/05/24 09:38:03;;;;;;;4.25;1.60;;;;;;;26.07;18.36;99742.48;1748464;82;21181;-71
2022/05/24 09:40:33;;;;;;;4.50;1.70;;;;;;;26.21;19.13;99750.44;1747092;82;21085;-71
2022/05/24 09:43:09;;;;;;;2.10;1.55;;;;;;;26.45;18.43;99738.79;1747526;82;21061;-71
2022/05/24 09:45:38;;;;;;;3.83;2.00;;;;;;;26.49;17.73;99729.34;1746879;82;21053;-70
2022/05/24 09:48:05;;;;;;;5.22;1.50;;;;;;;25.98;18.38;99725.95;1748307;82;21097;-71
2022/05/24 09:50:38;;;;;;;2.50;1.32;;;;;;;25.69;19.45;99742.02;1720711;82;21771;-71
2022/05/24 09:53:12;;;;;;;3.62;1.87;;;;;;;25.87;19.40;99743.80;1748129;82;21537;-70
2022/05/24 09:55:45;;;;;;;3.50;1.82;;;;;;;25.86;18.82;99736.19;1748258;81;21507;-71
2022/05/24 09:58:40;;;;;;;3.55;2.00;;;;;;;26.05;18.92;99739.11;1748092;82;21036;-70
2022/05/24 10:01:13;;;;;;;3.90;1.92;;;;;;;26.32;18.33;99736.61;1721272;82;21093;-72
2022/05/24 10:03:47;;;;;;;4.15;2.10;;;;;;;26.51;18.70;99730.02;1748343;82;21789;-71
2022/05/24 10:06:27;;;;;;;5.83;1.75;;;;;;;26.53;19.20;99736.10;1747962;82;21692;-71
2022/05/24 10:09:21;;;;;;;4.40;1.92;;;;;;;26.44;18.37;99736.28;1748361;82;21499;-69
2022/05/24 10:12:01;;;;;;;3.92;1.62;;;;;;;26.10;18.42;99731.35;1748095;82;21033;-72
2022/05/24 10:14:50;;;;;;;3.12;1.80;;;;;;;26.07;18.17;99737.61;1748535;81;21068;-70
2022/05/24 10:17:49;;;;;;;7.97;2.12;;;;;;;25.89;18.94;99735.03;1747943;82;21276;-71
2022/05/24 10:20:47;;;;;;;4.15;1.87;;;;;;;25.61;19.06;99744.70;1748438;82;21517;-71
2022/05/24 10:23:41;;;;;;;5.97;1.65;;;;;;;25.37;19.40;99735.16;1748236;82;21133;-70
2022/05/24 10:27:08;;;;;;;4.42;1.90;;;;;;;25.47;19.48;99728.65;1748357;82;21570;-71
2022/05/24 10:30:00;;;;;;;2.70;1.57;;;;;;;25.95;19.20;99726.27;1748246;82;21101;-71
2022/05/24 10:39:23;;;;;;;4.60;1.75;;;;;;;25.60;19.96;99722.77;1748339;82;20182;-70
2022/05/24 10:42:24;;;;;;;2.08;1.50;;;;;;;25.50;20.82;99724.78;1748052;82;21037;-71
2022/05/24 10:45:06;;;;;;;3.40;1.85;;;;;;;25.75;19.79;99725.70;1748328;82;21044;-71
2022/05/24 10:48:00;;;;;;;3.98;1.70;;;;;;;25.71;18.86;99717.08;1747139;82;21156;-72
2022/05/24 10:50:43;;;;;;;8.58;2.20;;;;;;;25.31;20.26;99731.28;1747197;82;21535;-69
2022/05/24 10:53:15;;;;;;;4.85;2.45;;;;;;;24.97;20.21;99727.19;1747217;82;21476;-71
2022/05/24 10:55:49;;;;;;;5.53;1.72;;;;;;;24.88;20.49;99728.47;1747414;82;21589;-70
2022/05/24 10:58:17;;;;;;;3.60;1.70;;;;;;;25.12;20.37;99721.53;1745421;81;21066;-73
2022/05/24 11:00:51;;;;;;;2.95;1.80;;;;;;;25.54;19.85;99728.84;1748332;82;21276;-71
2022/05/24 11:03:29;;;;;;;5.47;1.75;;;;;;;26.04;18.78;99727.96;1747938;82;21089;-71
2022/05/24 11:06:17;;;;;;;4.20;2.10;;;;;;;26.42;18.15;99726.98;1748278;81;21538;-70
2022/05/24 11:08:58;;;;;;;3.12;1.35;;;;;;;26.02;19.52;99730.01;1748005;82;21038;-71
2022/05/24 11:12:00;;;;;;;3.05;1.80;;;;;;;25.72;20.21;99732.27;1747785;82;21054;-71
2022/05/24 11:14:40;;;;;;;2.90;1.60;;;;;;;25.73;20.82;99731.25;1748251;82;21932;-70
2022/05/24 11:17:10;;;;;;;5.23;1.97;;;;;;;25.79;20.63;99731.59;1748283;82;21062;-70
2022/05/24 11:19:38;;;;;;;4.77;1.63;;;;;;;25.67;20.62;99732.41;1748386;82;21526;-70
2022/05/24 11:22:32;;;;;;;7.22;1.80;;;;;;;25.55;20.59;99726.47;1747993;82;21077;-70
2022/05/24 11:25:19;;;;;;;4.53;1.52;;;;;;;25.19;21.67;99731.20;1748220;82;21045;-72
2022/05/24 11:27:58;;;;;;;3.83;1.67;;;;;;;24.80;20.99;99731.13;1747981;82;21081;-71
2022/05/24 11:30:33;;;;;;;2.20;1.70;;;;;;;24.46;21.25;99733.20;1748092;81;21038;-70
2022/05/24 11:33:26;;;;;;;2.12;1.52;;;;;;;24.37;21.24;99728.75;1747990;81;20978;-71
2022/05/24 11:35:52;;;;;;;4.10;1.75;;;;;;;24.36;21.38;99733.77;1748020;82;21126;-72
2022/05/24 11:38:25;;;;;;;3.67;1.62;;;;;;;24.42;21.37;99733.16;1735854;81;21038;-71
2022/05/24 11:41:07;;;;;;;4.65;1.95;;;;;;;24.36;21.46;99728.39;1734511;82;21306;-72
2022/05/24 11:43:45;;;;;;;2.83;1.32;;;;;;;24.30;22.22;99737.10;1712200;82;21058;-72
2022/05/24 11:46:37;;;;;;;3.58;2.02;;;;;;;24.16;21.80;99735.80;1734168;82;21098;-71
2022/05/24 11:49:10;;;;;;;3.00;1.80;;;;;;;23.94;22.24;99738.43;1734140;82;21065;-70
2022/05/24 11:51:46;;;;;;;3.35;1.55;;;;;;;23.79;22.33;99730.56;1734166;82;21046;-72
2022/05/24 11:54:24;;;;;;;3.33;1.70;;;;;;;23.85;22.17;99721.87;1734241;82;21193;-71
2022/05/24 11:57:09;;;;;;;3.90;1.50;;;;;;;24.15;22.18;99730.06;1731202;82;21562;-71
2022/05/24 11:59:46;;;;;;;4.42;1.80;;;;;;;24.28;21.72;99722.45;1698564;82;21554;-70
2022/05/24 12:02:32;;;;;;;4.35;1.67;;;;;;;24.29;21.36;99730.02;1734116;82;21089;-70
2022/05/24 12:08:04;;;;;;;2.60;1.50;;;;;;;24.50;21.82;99735.09;1733978;82;21180;-70
2022/05/24 12:10:42;;;;;;;1.87;1.50;;;;;;;24.49;22.16;99738.29;1734074;82;22271;-71
2022/05/24 12:13:30;;;;;;;4.83;1.87;;;;;;;24.43;22.39;99729.48;1712197;82;21673;-71
2022/05/24 12:16:01;;;;;;;3.35;1.50;;;;;;;24.44;22.60;99733.85;1704581;84;21064;-71
2022/05/24 12:18:50;;;;;;;2.37;1.40;;;;;;;24.68;21.58;99729.69;1704923;84;21077;-70
2022/05/24 12:22:00;;;;;;;12.35;2.60;;;;;;;24.78;21.52;99727.75;1703728;84;22306;-70
2022/05/24 12:24:38;;;;;;;3.08;1.47;;;;;;;24.71;21.08;99729.39;1700490;84;21026;-69
2022/05/24 12:27:33;;;;;;;7.35;1.50;;;;;;;24.71;20.83;99717.27;1704811;84;21033;-70
2022/05/24 12:30:20;;;;;;;3.47;1.35;;;;;;;24.75;21.57;99725.86;1704705;84;21096;-72
2022/05/24 12:32:48;;;;;;;4.53;1.50;;;;;;;24.70;22.23;99729.03;1704730;84;21117;-71
2022/05/24 12:35:16;;;;;;;4.22;1.70;;;;;;;24.57;22.64;99725.89;1704676;84;21135;-70
2022/05/24 12:37:49;;;;;;;5.00;1.60;;;;;;;24.44;22.54;99728.47;1708212;83;21553;-70
2022/05/24 12:40:27;;;;;;;5.92;1.30;;;;;;;24.40;22.52;99729.78;1712578;83;21577;-72
2022/05/24 12:43:02;;;;;;;3.15;1.17;;;;;;;24.49;22.62;99724.83;1712455;83;21026;-72